sensor_id;sensor_type;location;lat;lon;timestamp;P1;durP1;ratioP1;P2;durP2;ratioP2
7575;SDS011;3829;50.798;4.358;2023-04-06T00:01:33;15.90;;;7.67;;
7575;SDS011;3829;50.798;4.358;2023-04-06T00:03:59;16.03;;;8.77;;
7575;SDS011;3829;50.798;4.358;2023-04-06T00:06:25;15.83;;;8.10;;
7575;SDS011;3829;50.798;4.358;2023-04-06T00:08:51;16.80;;;9.10;;
7575;SDS011;3829;50.798;4.358;2023-04-06T00:11:17;16.50;;;8.57;;
7575;SDS011;3829;50.798;4.358;2023-04-06T00:13:43;16.37;;;8.97;;
7575;SDS011;3829;50.798;4.358;2023-04-06T00:16:08;22.13;;;9.60;;
7575;SDS011;3829;50.798;4.358;2023-04-06T00:18:34;18.13;;;8.83;;
7575;SDS011;3829;50.798;4.358;2023-04-06T00:21:00;16.90;;;9.20;;
7575;SDS011;3829;50.798;4.358;2023-04-06T00:23:25;16.43;;;8.80;;
7575;SDS011;3829;50.798;4.358;2023-04-06T00:25:51;18.27;;;8.53;;
7575;SDS011;3829;50.798;4.358;2023-04-06T00:28:17;17.40;;;9.03;;
7575;SDS011;3829;50.798;4.358;2023-04-06T00:30:45;20.33;;;9.80;;
7575;SDS011;3829;50.798;4.358;2023-04-06T00:33:10;18.57;;;8.73;;
7575;SDS011;3829;50.798;4.358;2023-04-06T00:35:36;20.00;;;8.60;;
7575;SDS011;3829;50.798;4.358;2023-04-06T00:38:02;21.70;;;9.60;;
7575;SDS011;3829;50.798;4.358;2023-04-06T00:40:27;18.57;;;9.93;;
7575;SDS011;3829;50.798;4.358;2023-04-06T00:42:53;21.97;;;8.93;;
7575;SDS011;3829;50.798;4.358;2023-04-06T00:45:19;14.70;;;8.43;;
7575;SDS011;3829;50.798;4.358;2023-04-06T00:47:45;16.67;;;8.90;;
7575;SDS011;3829;50.798;4.358;2023-04-06T00:50:11;16.23;;;8.87;;
7575;SDS011;3829;50.798;4.358;2023-04-06T00:52:37;18.27;;;9.10;;
7575;SDS011;3829;50.798;4.358;2023-04-06T00:55:03;16.87;;;8.40;;
7575;SDS011;3829;50.798;4.358;2023-04-06T00:57:29;18.20;;;8.93;;
7575;SDS011;3829;50.798;4.358;2023-04-06T00:59:56;14.97;;;9.43;;
7575;SDS011;3829;50.798;4.358;2023-04-06T01:02:21;25.27;;;10.53;;
7575;SDS011;3829;50.798;4.358;2023-04-06T01:04:48;18.27;;;8.57;;
7575;SDS011;3829;50.798;4.358;2023-04-06T01:07:13;15.87;;;8.93;;
7575;SDS011;3829;50.798;4.358;2023-04-06T01:09:39;17.30;;;8.97;;
7575;SDS011;3829;50.798;4.358;2023-04-06T01:12:06;20.90;;;9.87;;
7575;SDS011;3829;50.798;4.358;2023-04-06T01:14:32;20.17;;;9.93;;
7575;SDS011;3829;50.798;4.358;2023-04-06T01:16:58;18.43;;;9.37;;
7575;SDS011;3829;50.798;4.358;2023-04-06T01:19:25;16.97;;;8.60;;
7575;SDS011;3829;50.798;4.358;2023-04-06T01:21:51;17.80;;;9.67;;
7575;SDS011;3829;50.798;4.358;2023-04-06T01:24:18;17.87;;;9.60;;
7575;SDS011;3829;50.798;4.358;2023-04-06T01:26:44;20.93;;;10.27;;
7575;SDS011;3829;50.798;4.358;2023-04-06T01:29:10;20.53;;;9.60;;
7575;SDS011;3829;50.798;4.358;2023-04-06T01:31:36;23.33;;;9.77;;
7575;SDS011;3829;50.798;4.358;2023-04-06T01:34:02;18.40;;;9.47;;
7575;SDS011;3829;50.798;4.358;2023-04-06T01:36:28;21.33;;;9.90;;
7575;SDS011;3829;50.798;4.358;2023-04-06T01:38:53;21.97;;;10.73;;
7575;SDS011;3829;50.798;4.358;2023-04-06T01:41:19;17.57;;;9.60;;
7575;SDS011;3829;50.798;4.358;2023-04-06T01:43:46;19.60;;;10.37;;
7575;SDS011;3829;50.798;4.358;2023-04-06T01:46:13;23.63;;;9.80;;
7575;SDS011;3829;50.798;4.358;2023-04-06T01:48:38;23.20;;;10.53;;
7575;SDS011;3829;50.798;4.358;2023-04-06T01:51:04;24.87;;;10.27;;
7575;SDS011;3829;50.798;4.358;2023-04-06T01:53:30;20.23;;;9.70;;
7575;SDS011;3829;50.798;4.358;2023-04-06T01:55:55;18.30;;;9.93;;
7575;SDS011;3829;50.798;4.358;2023-04-06T01:58:21;20.50;;;10.23;;
7575;SDS011;3829;50.798;4.358;2023-04-06T02:00:47;22.00;;;10.37;;
7575;SDS011;3829;50.798;4.358;2023-04-06T02:03:12;18.77;;;10.30;;
7575;SDS011;3829;50.798;4.358;2023-04-06T02:05:39;18.13;;;10.13;;
7575;SDS011;3829;50.798;4.358;2023-04-06T02:08:08;19.63;;;10.97;;
7575;SDS011;3829;50.798;4.358;2023-04-06T02:10:34;22.53;;;10.90;;
7575;SDS011;3829;50.798;4.358;2023-04-06T02:13:00;20.07;;;9.53;;
7575;SDS011;3829;50.798;4.358;2023-04-06T02:15:26;21.33;;;9.97;;
7575;SDS011;3829;50.798;4.358;2023-04-06T02:17:52;18.70;;;8.97;;
7575;SDS011;3829;50.798;4.358;2023-04-06T02:20:18;18.03;;;10.00;;
7575;SDS011;3829;50.798;4.358;2023-04-06T02:22:44;18.80;;;9.80;;
7575;SDS011;3829;50.798;4.358;2023-04-06T02:25:10;23.13;;;10.20;;
7575;SDS011;3829;50.798;4.358;2023-04-06T02:27:36;21.13;;;10.50;;
7575;SDS011;3829;50.798;4.358;2023-04-06T02:30:04;17.13;;;9.47;;
7575;SDS011;3829;50.798;4.358;2023-04-06T02:32:30;22.93;;;10.53;;
7575;SDS011;3829;50.798;4.358;2023-04-06T02:34:56;18.53;;;10.10;;
7575;SDS011;3829;50.798;4.358;2023-04-06T02:37:21;23.70;;;11.03;;
7575;SDS011;3829;50.798;4.358;2023-04-06T02:39:49;27.77;;;10.57;;
7575;SDS011;3829;50.798;4.358;2023-04-06T02:42:14;19.23;;;9.60;;
7575;SDS011;3829;50.798;4.358;2023-04-06T02:44:41;20.93;;;9.80;;
7575;SDS011;3829;50.798;4.358;2023-04-06T02:47:07;20.63;;;10.07;;
7575;SDS011;3829;50.798;4.358;2023-04-06T02:49:32;17.37;;;10.03;;
7575;SDS011;3829;50.798;4.358;2023-04-06T02:51:58;18.77;;;9.87;;
7575;SDS011;3829;50.798;4.358;2023-04-06T02:54:24;19.90;;;9.77;;
7575;SDS011;3829;50.798;4.358;2023-04-06T02:56:49;20.93;;;9.23;;
7575;SDS011;3829;50.798;4.358;2023-04-06T02:59:15;20.20;;;9.70;;
7575;SDS011;3829;50.798;4.358;2023-04-06T03:01:41;18.50;;;9.93;;
7575;SDS011;3829;50.798;4.358;2023-04-06T03:04:06;19.90;;;9.53;;
7575;SDS011;3829;50.798;4.358;2023-04-06T03:06:32;21.77;;;10.13;;
7575;SDS011;3829;50.798;4.358;2023-04-06T03:08:58;21.50;;;10.87;;
7575;SDS011;3829;50.798;4.358;2023-04-06T03:11:23;17.00;;;9.43;;
7575;SDS011;3829;50.798;4.358;2023-04-06T03:13:50;17.40;;;9.50;;
7575;SDS011;3829;50.798;4.358;2023-04-06T03:16:16;19.27;;;9.17;;
7575;SDS011;3829;50.798;4.358;2023-04-06T03:18:41;19.10;;;9.90;;
7575;SDS011;3829;50.798;4.358;2023-04-06T03:21:09;18.20;;;9.20;;
7575;SDS011;3829;50.798;4.358;2023-04-06T03:23:35;19.70;;;9.93;;
7575;SDS011;3829;50.798;4.358;2023-04-06T03:26:01;21.37;;;9.53;;
7575;SDS011;3829;50.798;4.358;2023-04-06T03:28:27;18.97;;;9.60;;
7575;SDS011;3829;50.798;4.358;2023-04-06T03:30:53;14.83;;;8.90;;
7575;SDS011;3829;50.798;4.358;2023-04-06T03:33:18;20.17;;;10.50;;
7575;SDS011;3829;50.798;4.358;2023-04-06T03:35:44;18.63;;;8.80;;
7575;SDS011;3829;50.798;4.358;2023-04-06T03:38:09;19.10;;;9.93;;
7575;SDS011;3829;50.798;4.358;2023-04-06T03:40:35;16.83;;;9.77;;
7575;SDS011;3829;50.798;4.358;2023-04-06T03:43:01;21.13;;;8.93;;
7575;SDS011;3829;50.798;4.358;2023-04-06T03:45:27;20.80;;;9.33;;
7575;SDS011;3829;50.798;4.358;2023-04-06T03:47:52;19.43;;;10.10;;
7575;SDS011;3829;50.798;4.358;2023-04-06T03:50:18;18.00;;;8.93;;
7575;SDS011;3829;50.798;4.358;2023-04-06T03:52:44;19.80;;;9.47;;
7575;SDS011;3829;50.798;4.358;2023-04-06T03:55:10;19.73;;;9.37;;
7575;SDS011;3829;50.798;4.358;2023-04-06T03:57:35;20.47;;;8.73;;
7575;SDS011;3829;50.798;4.358;2023-04-06T04:00:02;16.67;;;8.57;;
7575;SDS011;3829;50.798;4.358;2023-04-06T04:02:28;19.93;;;9.63;;
7575;SDS011;3829;50.798;4.358;2023-04-06T04:04:54;18.17;;;9.17;;
7575;SDS011;3829;50.798;4.358;2023-04-06T04:07:20;16.33;;;8.83;;
7575;SDS011;3829;50.798;4.358;2023-04-06T04:09:45;18.60;;;10.07;;
7575;SDS011;3829;50.798;4.358;2023-04-06T04:12:11;16.77;;;9.70;;
7575;SDS011;3829;50.798;4.358;2023-04-06T04:14:36;20.60;;;8.67;;
7575;SDS011;3829;50.798;4.358;2023-04-06T04:17:02;17.73;;;8.73;;
7575;SDS011;3829;50.798;4.358;2023-04-06T04:19:28;17.23;;;9.03;;
7575;SDS011;3829;50.798;4.358;2023-04-06T04:21:53;14.77;;;8.53;;
7575;SDS011;3829;50.798;4.358;2023-04-06T04:24:19;19.07;;;9.13;;
7575;SDS011;3829;50.798;4.358;2023-04-06T04:26:44;18.20;;;9.37;;
7575;SDS011;3829;50.798;4.358;2023-04-06T04:29:10;18.50;;;9.53;;
7575;SDS011;3829;50.798;4.358;2023-04-06T04:31:36;20.47;;;10.57;;
7575;SDS011;3829;50.798;4.358;2023-04-06T04:34:01;19.63;;;9.13;;
7575;SDS011;3829;50.798;4.358;2023-04-06T04:36:27;16.00;;;8.73;;
7575;SDS011;3829;50.798;4.358;2023-04-06T04:38:53;20.40;;;9.53;;
7575;SDS011;3829;50.798;4.358;2023-04-06T04:41:18;20.23;;;10.17;;
7575;SDS011;3829;50.798;4.358;2023-04-06T04:43:44;17.33;;;9.37;;
7575;SDS011;3829;50.798;4.358;2023-04-06T04:46:10;20.43;;;8.87;;
7575;SDS011;3829;50.798;4.358;2023-04-06T04:48:36;20.97;;;10.83;;
7575;SDS011;3829;50.798;4.358;2023-04-06T04:51:01;17.93;;;8.90;;
7575;SDS011;3829;50.798;4.358;2023-04-06T04:53:29;17.90;;;9.70;;
7575;SDS011;3829;50.798;4.358;2023-04-06T04:55:55;16.00;;;9.03;;
7575;SDS011;3829;50.798;4.358;2023-04-06T04:58:20;17.53;;;9.80;;
7575;SDS011;3829;50.798;4.358;2023-04-06T05:00:46;20.37;;;9.63;;
7575;SDS011;3829;50.798;4.358;2023-04-06T05:03:14;17.13;;;10.27;;
7575;SDS011;3829;50.798;4.358;2023-04-06T05:05:49;19.67;;;9.77;;
7575;SDS011;3829;50.798;4.358;2023-04-06T05:08:15;15.40;;;9.53;;
7575;SDS011;3829;50.798;4.358;2023-04-06T05:10:41;17.67;;;10.20;;
7575;SDS011;3829;50.798;4.358;2023-04-06T05:13:07;21.20;;;10.03;;
7575;SDS011;3829;50.798;4.358;2023-04-06T05:15:33;18.07;;;9.37;;
7575;SDS011;3829;50.798;4.358;2023-04-06T05:18:12;17.30;;;10.17;;
7575;SDS011;3829;50.798;4.358;2023-04-06T05:20:38;20.67;;;9.87;;
7575;SDS011;3829;50.798;4.358;2023-04-06T05:23:04;17.30;;;9.77;;
7575;SDS011;3829;50.798;4.358;2023-04-06T05:25:30;20.83;;;9.93;;
7575;SDS011;3829;50.798;4.358;2023-04-06T05:27:56;19.90;;;9.87;;
7575;SDS011;3829;50.798;4.358;2023-04-06T05:30:22;18.03;;;10.53;;
7575;SDS011;3829;50.798;4.358;2023-04-06T05:32:47;21.53;;;10.50;;
7575;SDS011;3829;50.798;4.358;2023-04-06T05:35:13;16.70;;;9.60;;
7575;SDS011;3829;50.798;4.358;2023-04-06T05:37:39;19.03;;;10.40;;
7575;SDS011;3829;50.798;4.358;2023-04-06T05:40:05;18.77;;;10.30;;
7575;SDS011;3829;50.798;4.358;2023-04-06T05:42:37;22.03;;;11.17;;
7575;SDS011;3829;50.798;4.358;2023-04-06T05:45:04;20.60;;;11.07;;
7575;SDS011;3829;50.798;4.358;2023-04-06T05:47:33;20.97;;;11.57;;
7575;SDS011;3829;50.798;4.358;2023-04-06T05:49:59;19.67;;;10.53;;
7575;SDS011;3829;50.798;4.358;2023-04-06T05:52:24;23.30;;;11.13;;
7575;SDS011;3829;50.798;4.358;2023-04-06T05:54:50;20.00;;;11.00;;
7575;SDS011;3829;50.798;4.358;2023-04-06T05:57:16;25.83;;;12.27;;
7575;SDS011;3829;50.798;4.358;2023-04-06T05:59:42;21.93;;;12.30;;
7575;SDS011;3829;50.798;4.358;2023-04-06T06:02:08;21.07;;;11.13;;
7575;SDS011;3829;50.798;4.358;2023-04-06T06:04:33;25.33;;;11.63;;
7575;SDS011;3829;50.798;4.358;2023-04-06T06:06:59;21.93;;;10.87;;
7575;SDS011;3829;50.798;4.358;2023-04-06T06:09:25;23.97;;;11.43;;
7575;SDS011;3829;50.798;4.358;2023-04-06T06:11:51;20.93;;;11.93;;
7575;SDS011;3829;50.798;4.358;2023-04-06T06:14:17;25.37;;;12.27;;
7575;SDS011;3829;50.798;4.358;2023-04-06T06:16:42;22.13;;;12.10;;
7575;SDS011;3829;50.798;4.358;2023-04-06T06:19:08;20.00;;;10.53;;
7575;SDS011;3829;50.798;4.358;2023-04-06T06:21:33;23.17;;;12.07;;
7575;SDS011;3829;50.798;4.358;2023-04-06T06:23:59;22.60;;;11.43;;
7575;SDS011;3829;50.798;4.358;2023-04-06T06:26:25;23.20;;;11.40;;
7575;SDS011;3829;50.798;4.358;2023-04-06T06:28:51;26.70;;;13.17;;
7575;SDS011;3829;50.798;4.358;2023-04-06T06:31:16;20.03;;;11.30;;
7575;SDS011;3829;50.798;4.358;2023-04-06T06:33:45;23.07;;;12.57;;
7575;SDS011;3829;50.798;4.358;2023-04-06T06:36:11;22.50;;;12.83;;
7575;SDS011;3829;50.798;4.358;2023-04-06T06:38:36;20.17;;;11.33;;
7575;SDS011;3829;50.798;4.358;2023-04-06T06:41:03;26.30;;;12.33;;
7575;SDS011;3829;50.798;4.358;2023-04-06T06:43:28;24.60;;;11.73;;
7575;SDS011;3829;50.798;4.358;2023-04-06T06:45:54;22.67;;;11.23;;
7575;SDS011;3829;50.798;4.358;2023-04-06T06:48:19;23.83;;;12.83;;
7575;SDS011;3829;50.798;4.358;2023-04-06T06:50:46;20.17;;;12.27;;
7575;SDS011;3829;50.798;4.358;2023-04-06T06:53:13;22.23;;;12.33;;
7575;SDS011;3829;50.798;4.358;2023-04-06T06:55:38;21.03;;;11.43;;
7575;SDS011;3829;50.798;4.358;2023-04-06T06:58:04;20.03;;;10.77;;
7575;SDS011;3829;50.798;4.358;2023-04-06T07:00:31;25.60;;;11.33;;
7575;SDS011;3829;50.798;4.358;2023-04-06T07:02:56;24.03;;;11.97;;
7575;SDS011;3829;50.798;4.358;2023-04-06T07:05:22;23.03;;;12.07;;
7575;SDS011;3829;50.798;4.358;2023-04-06T07:07:47;21.73;;;11.83;;
7575;SDS011;3829;50.798;4.358;2023-04-06T07:10:13;24.63;;;12.80;;
7575;SDS011;3829;50.798;4.358;2023-04-06T07:12:40;21.97;;;11.63;;
7575;SDS011;3829;50.798;4.358;2023-04-06T07:15:05;23.23;;;10.83;;
7575;SDS011;3829;50.798;4.358;2023-04-06T07:17:31;19.57;;;11.23;;
7575;SDS011;3829;50.798;4.358;2023-04-06T07:19:57;23.77;;;11.33;;
7575;SDS011;3829;50.798;4.358;2023-04-06T07:22:23;23.73;;;12.10;;
7575;SDS011;3829;50.798;4.358;2023-04-06T07:24:48;22.83;;;11.30;;
7575;SDS011;3829;50.798;4.358;2023-04-06T07:27:14;21.67;;;11.07;;
7575;SDS011;3829;50.798;4.358;2023-04-06T07:29:41;20.00;;;9.87;;
7575;SDS011;3829;50.798;4.358;2023-04-06T07:32:07;20.23;;;9.97;;
7575;SDS011;3829;50.798;4.358;2023-04-06T07:34:32;18.23;;;10.23;;
7575;SDS011;3829;50.798;4.358;2023-04-06T07:36:58;21.53;;;9.80;;
7575;SDS011;3829;50.798;4.358;2023-04-06T07:39:25;23.63;;;10.63;;
7575;SDS011;3829;50.798;4.358;2023-04-06T07:41:52;17.27;;;10.03;;
7575;SDS011;3829;50.798;4.358;2023-04-06T07:44:17;20.00;;;10.40;;
7575;SDS011;3829;50.798;4.358;2023-04-06T07:46:43;18.50;;;9.17;;
7575;SDS011;3829;50.798;4.358;2023-04-06T07:49:09;21.70;;;9.77;;
7575;SDS011;3829;50.798;4.358;2023-04-06T07:51:35;20.23;;;10.10;;
7575;SDS011;3829;50.798;4.358;2023-04-06T07:54:02;16.80;;;9.43;;
7575;SDS011;3829;50.798;4.358;2023-04-06T07:56:28;19.40;;;9.40;;
7575;SDS011;3829;50.798;4.358;2023-04-06T07:58:53;19.07;;;10.07;;
7575;SDS011;3829;50.798;4.358;2023-04-06T08:01:23;18.73;;;9.97;;
7575;SDS011;3829;50.798;4.358;2023-04-06T08:03:48;17.50;;;9.80;;
7575;SDS011;3829;50.798;4.358;2023-04-06T08:06:15;19.67;;;9.87;;
7575;SDS011;3829;50.798;4.358;2023-04-06T08:08:41;19.10;;;10.20;;
7575;SDS011;3829;50.798;4.358;2023-04-06T08:11:07;15.20;;;9.07;;
7575;SDS011;3829;50.798;4.358;2023-04-06T08:13:34;19.80;;;9.90;;
7575;SDS011;3829;50.798;4.358;2023-04-06T08:16:00;19.23;;;9.47;;
7575;SDS011;3829;50.798;4.358;2023-04-06T08:18:26;17.43;;;9.23;;
7575;SDS011;3829;50.798;4.358;2023-04-06T08:20:52;16.60;;;9.90;;
7575;SDS011;3829;50.798;4.358;2023-04-06T08:23:17;22.00;;;8.97;;
7575;SDS011;3829;50.798;4.358;2023-04-06T08:25:43;18.57;;;10.10;;
7575;SDS011;3829;50.798;4.358;2023-04-06T08:28:08;19.97;;;9.97;;
7575;SDS011;3829;50.798;4.358;2023-04-06T08:30:34;15.80;;;9.07;;
7575;SDS011;3829;50.798;4.358;2023-04-06T08:33:00;17.23;;;10.10;;
7575;SDS011;3829;50.798;4.358;2023-04-06T08:35:26;17.83;;;9.10;;
7575;SDS011;3829;50.798;4.358;2023-04-06T08:37:52;17.50;;;8.53;;
7575;SDS011;3829;50.798;4.358;2023-04-06T08:40:18;15.57;;;8.53;;
7575;SDS011;3829;50.798;4.358;2023-04-06T08:42:46;16.23;;;8.37;;
7575;SDS011;3829;50.798;4.358;2023-04-06T08:45:15;16.77;;;8.60;;
7575;SDS011;3829;50.798;4.358;2023-04-06T08:47:42;16.40;;;8.13;;
7575;SDS011;3829;50.798;4.358;2023-04-06T08:50:09;15.70;;;8.97;;
7575;SDS011;3829;50.798;4.358;2023-04-06T08:52:36;17.93;;;9.47;;
7575;SDS011;3829;50.798;4.358;2023-04-06T08:55:03;16.57;;;9.00;;
7575;SDS011;3829;50.798;4.358;2023-04-06T08:57:29;18.13;;;9.97;;
7575;SDS011;3829;50.798;4.358;2023-04-06T08:59:56;14.90;;;8.27;;
7575;SDS011;3829;50.798;4.358;2023-04-06T09:02:25;16.87;;;9.63;;
7575;SDS011;3829;50.798;4.358;2023-04-06T09:04:52;16.63;;;8.53;;
7575;SDS011;3829;50.798;4.358;2023-04-06T09:07:20;18.00;;;8.67;;
7575;SDS011;3829;50.798;4.358;2023-04-06T09:09:46;14.63;;;8.50;;
7575;SDS011;3829;50.798;4.358;2023-04-06T09:12:29;21.27;;;9.43;;
7575;SDS011;3829;50.798;4.358;2023-04-06T09:14:57;19.37;;;9.13;;
7575;SDS011;3829;50.798;4.358;2023-04-06T09:17:27;17.77;;;9.93;;
7575;SDS011;3829;50.798;4.358;2023-04-06T09:19:55;17.13;;;8.43;;
7575;SDS011;3829;50.798;4.358;2023-04-06T09:22:21;17.83;;;8.90;;
7575;SDS011;3829;50.798;4.358;2023-04-06T09:24:48;16.43;;;8.93;;
7575;SDS011;3829;50.798;4.358;2023-04-06T09:27:17;15.60;;;8.80;;
7575;SDS011;3829;50.798;4.358;2023-04-06T09:30:02;16.03;;;8.13;;
7575;SDS011;3829;50.798;4.358;2023-04-06T09:32:32;15.33;;;8.20;;
7575;SDS011;3829;50.798;4.358;2023-04-06T09:35:08;13.87;;;8.07;;
7575;SDS011;3829;50.798;4.358;2023-04-06T09:37:34;14.03;;;7.50;;
7575;SDS011;3829;50.798;4.358;2023-04-06T09:40:06;15.87;;;7.70;;
7575;SDS011;3829;50.798;4.358;2023-04-06T09:42:33;14.47;;;7.83;;
7575;SDS011;3829;50.798;4.358;2023-04-06T09:45:01;17.17;;;7.90;;
7575;SDS011;3829;50.798;4.358;2023-04-06T09:47:28;18.27;;;7.83;;
7575;SDS011;3829;50.798;4.358;2023-04-06T09:49:59;15.47;;;8.47;;
7575;SDS011;3829;50.798;4.358;2023-04-06T09:52:32;13.33;;;7.50;;
7575;SDS011;3829;50.798;4.358;2023-04-06T09:55:02;15.83;;;8.50;;
7575;SDS011;3829;50.798;4.358;2023-04-06T09:57:37;12.07;;;6.67;;
7575;SDS011;3829;50.798;4.358;2023-04-06T10:00:16;14.57;;;8.63;;
7575;SDS011;3829;50.798;4.358;2023-04-06T10:02:48;12.97;;;7.93;;
7575;SDS011;3829;50.798;4.358;2023-04-06T10:08:17;11.10;;;7.40;;
7575;SDS011;3829;50.798;4.358;2023-04-06T10:10:45;15.00;;;7.50;;
7575;SDS011;3829;50.798;4.358;2023-04-06T10:13:12;12.77;;;7.37;;
7575;SDS011;3829;50.798;4.358;2023-04-06T10:15:38;13.77;;;8.00;;
7575;SDS011;3829;50.798;4.358;2023-04-06T10:18:04;12.57;;;6.90;;
7575;SDS011;3829;50.798;4.358;2023-04-06T10:23:06;14.13;;;7.40;;
7575;SDS011;3829;50.798;4.358;2023-04-06T10:25:39;12.90;;;7.50;;
7575;SDS011;3829;50.798;4.358;2023-04-06T10:28:06;14.07;;;7.57;;
7575;SDS011;3829;50.798;4.358;2023-04-06T10:30:33;11.07;;;6.77;;
7575;SDS011;3829;50.798;4.358;2023-04-06T10:32:59;12.10;;;7.27;;
7575;SDS011;3829;50.798;4.358;2023-04-06T10:35:35;13.13;;;7.60;;
7575;SDS011;3829;50.798;4.358;2023-04-06T10:38:03;12.23;;;6.97;;
7575;SDS011;3829;50.798;4.358;2023-04-06T10:40:30;13.40;;;8.20;;
7575;SDS011;3829;50.798;4.358;2023-04-06T10:43:12;11.63;;;7.23;;
7575;SDS011;3829;50.798;4.358;2023-04-06T10:45:43;11.53;;;7.27;;
7575;SDS011;3829;50.798;4.358;2023-04-06T10:48:16;11.90;;;7.40;;
7575;SDS011;3829;50.798;4.358;2023-04-06T10:50:44;16.00;;;8.03;;
7575;SDS011;3829;50.798;4.358;2023-04-06T10:53:11;13.60;;;7.90;;
7575;SDS011;3829;50.798;4.358;2023-04-06T10:55:45;16.13;;;8.03;;
7575;SDS011;3829;50.798;4.358;2023-04-06T10:58:11;13.77;;;7.83;;
7575;SDS011;3829;50.798;4.358;2023-04-06T11:00:43;12.33;;;7.53;;
7575;SDS011;3829;50.798;4.358;2023-04-06T11:03:12;15.63;;;8.30;;
7575;SDS011;3829;50.798;4.358;2023-04-06T11:05:38;13.37;;;8.60;;
7575;SDS011;3829;50.798;4.358;2023-04-06T11:11:08;13.07;;;7.37;;
7575;SDS011;3829;50.798;4.358;2023-04-06T11:13:41;15.53;;;9.60;;
7575;SDS011;3829;50.798;4.358;2023-04-06T11:19:06;15.83;;;8.37;;
7575;SDS011;3829;50.798;4.358;2023-04-06T11:24:20;13.07;;;8.57;;
7575;SDS011;3829;50.798;4.358;2023-04-06T11:26:48;15.20;;;8.30;;
7575;SDS011;3829;50.798;4.358;2023-04-06T11:31:53;14.87;;;7.97;;
7575;SDS011;3829;50.798;4.358;2023-04-06T11:34:25;13.27;;;8.17;;
7575;SDS011;3829;50.798;4.358;2023-04-06T11:36:59;14.43;;;8.20;;
7575;SDS011;3829;50.798;4.358;2023-04-06T11:39:27;16.47;;;8.77;;
7575;SDS011;3829;50.798;4.358;2023-04-06T11:42:00;15.03;;;8.90;;
7575;SDS011;3829;50.798;4.358;2023-04-06T11:44:33;14.30;;;8.65;;
7575;SDS011;3829;50.798;4.358;2023-04-06T11:47:10;12.50;;;8.17;;
7575;SDS011;3829;50.798;4.358;2023-04-06T11:49:37;13.80;;;8.23;;
7575;SDS011;3829;50.798;4.358;2023-04-06T11:52:14;14.77;;;8.73;;
7575;SDS011;3829;50.798;4.358;2023-04-06T11:54:41;12.67;;;7.83;;
7575;SDS011;3829;50.798;4.358;2023-04-06T11:57:07;12.37;;;7.83;;
7575;SDS011;3829;50.798;4.358;2023-04-06T11:59:34;12.67;;;8.40;;
7575;SDS011;3829;50.798;4.358;2023-04-06T12:02:03;14.33;;;8.17;;
7575;SDS011;3829;50.798;4.358;2023-04-06T12:04:29;15.63;;;8.10;;
7575;SDS011;3829;50.798;4.358;2023-04-06T12:06:55;13.80;;;8.57;;
7575;SDS011;3829;50.798;4.358;2023-04-06T12:09:21;16.27;;;9.93;;
7575;SDS011;3829;50.798;4.358;2023-04-06T12:11:47;14.00;;;8.30;;
7575;SDS011;3829;50.798;4.358;2023-04-06T12:14:13;15.60;;;8.80;;
7575;SDS011;3829;50.798;4.358;2023-04-06T12:16:38;13.97;;;9.03;;
7575;SDS011;3829;50.798;4.358;2023-04-06T12:19:04;17.27;;;9.30;;
7575;SDS011;3829;50.798;4.358;2023-04-06T12:21:31;15.77;;;9.53;;
7575;SDS011;3829;50.798;4.358;2023-04-06T12:23:57;14.33;;;9.17;;
7575;SDS011;3829;50.798;4.358;2023-04-06T12:26:23;15.43;;;9.10;;
7575;SDS011;3829;50.798;4.358;2023-04-06T12:28:49;14.47;;;9.03;;
7575;SDS011;3829;50.798;4.358;2023-04-06T12:31:16;15.17;;;9.30;;
7575;SDS011;3829;50.798;4.358;2023-04-06T12:33:42;20.00;;;10.50;;
7575;SDS011;3829;50.798;4.358;2023-04-06T12:36:14;15.43;;;9.07;;
7575;SDS011;3829;50.798;4.358;2023-04-06T12:38:43;14.03;;;8.90;;
7575;SDS011;3829;50.798;4.358;2023-04-06T12:41:10;14.97;;;9.17;;
7575;SDS011;3829;50.798;4.358;2023-04-06T12:43:37;15.67;;;8.57;;
7575;SDS011;3829;50.798;4.358;2023-04-06T12:46:03;18.73;;;8.80;;
7575;SDS011;3829;50.798;4.358;2023-04-06T12:48:28;11.83;;;8.43;;
7575;SDS011;3829;50.798;4.358;2023-04-06T12:50:57;14.97;;;9.03;;
7575;SDS011;3829;50.798;4.358;2023-04-06T12:53:26;15.57;;;9.13;;
7575;SDS011;3829;50.798;4.358;2023-04-06T12:55:53;14.80;;;9.13;;
7575;SDS011;3829;50.798;4.358;2023-04-06T12:58:20;14.83;;;9.20;;
7575;SDS011;3829;50.798;4.358;2023-04-06T13:00:47;15.83;;;8.50;;
7575;SDS011;3829;50.798;4.358;2023-04-06T13:03:13;14.00;;;9.13;;
7575;SDS011;3829;50.798;4.358;2023-04-06T13:05:45;17.87;;;9.27;;
7575;SDS011;3829;50.798;4.358;2023-04-06T13:08:14;16.23;;;9.83;;
7575;SDS011;3829;50.798;4.358;2023-04-06T13:10:46;16.93;;;10.10;;
7575;SDS011;3829;50.798;4.358;2023-04-06T13:13:13;15.70;;;9.90;;
7575;SDS011;3829;50.798;4.358;2023-04-06T13:15:40;16.23;;;9.87;;
7575;SDS011;3829;50.798;4.358;2023-04-06T13:18:06;19.37;;;10.70;;
7575;SDS011;3829;50.798;4.358;2023-04-06T13:20:32;16.07;;;9.57;;
7575;SDS011;3829;50.798;4.358;2023-04-06T13:22:58;15.80;;;8.77;;
7575;SDS011;3829;50.798;4.358;2023-04-06T13:25:23;15.90;;;10.30;;
7575;SDS011;3829;50.798;4.358;2023-04-06T13:27:49;17.37;;;9.93;;
7575;SDS011;3829;50.798;4.358;2023-04-06T13:30:15;17.90;;;9.43;;
7575;SDS011;3829;50.798;4.358;2023-04-06T13:32:41;15.37;;;8.83;;
7575;SDS011;3829;50.798;4.358;2023-04-06T13:35:07;17.27;;;9.60;;
7575;SDS011;3829;50.798;4.358;2023-04-06T13:37:34;16.77;;;9.57;;
7575;SDS011;3829;50.798;4.358;2023-04-06T13:40:00;17.40;;;10.67;;
7575;SDS011;3829;50.798;4.358;2023-04-06T13:42:27;17.63;;;10.50;;
7575;SDS011;3829;50.798;4.358;2023-04-06T13:44:53;17.53;;;9.83;;
7575;SDS011;3829;50.798;4.358;2023-04-06T13:47:19;16.00;;;9.27;;
7575;SDS011;3829;50.798;4.358;2023-04-06T13:49:45;17.43;;;9.83;;
7575;SDS011;3829;50.798;4.358;2023-04-06T13:52:11;18.33;;;10.43;;
7575;SDS011;3829;50.798;4.358;2023-04-06T13:54:37;14.57;;;9.23;;
7575;SDS011;3829;50.798;4.358;2023-04-06T13:57:03;14.77;;;10.17;;
7575;SDS011;3829;50.798;4.358;2023-04-06T13:59:35;18.17;;;9.40;;
7575;SDS011;3829;50.798;4.358;2023-04-06T14:02:01;16.73;;;9.73;;
7575;SDS011;3829;50.798;4.358;2023-04-06T14:04:27;16.70;;;9.23;;
7575;SDS011;3829;50.798;4.358;2023-04-06T14:06:53;18.40;;;10.30;;
7575;SDS011;3829;50.798;4.358;2023-04-06T14:09:19;15.27;;;9.83;;
7575;SDS011;3829;50.798;4.358;2023-04-06T14:11:45;14.40;;;9.37;;
7575;SDS011;3829;50.798;4.358;2023-04-06T14:14:10;14.47;;;10.00;;
7575;SDS011;3829;50.798;4.358;2023-04-06T14:16:36;16.93;;;9.77;;
7575;SDS011;3829;50.798;4.358;2023-04-06T14:19:02;19.87;;;10.53;;
7575;SDS011;3829;50.798;4.358;2023-04-06T14:21:27;16.27;;;11.33;;
7575;SDS011;3829;50.798;4.358;2023-04-06T14:23:53;16.53;;;10.33;;
7575;SDS011;3829;50.798;4.358;2023-04-06T14:26:20;18.53;;;11.07;;
7575;SDS011;3829;50.798;4.358;2023-04-06T14:28:45;17.53;;;10.40;;
7575;SDS011;3829;50.798;4.358;2023-04-06T14:31:12;16.87;;;10.20;;
7575;SDS011;3829;50.798;4.358;2023-04-06T14:33:40;17.30;;;10.77;;
7575;SDS011;3829;50.798;4.358;2023-04-06T14:36:08;16.13;;;10.57;;
7575;SDS011;3829;50.798;4.358;2023-04-06T14:38:34;17.67;;;10.73;;
7575;SDS011;3829;50.798;4.358;2023-04-06T14:41:00;16.53;;;10.83;;
7575;SDS011;3829;50.798;4.358;2023-04-06T14:43:26;17.90;;;10.80;;
7575;SDS011;3829;50.798;4.358;2023-04-06T14:45:51;17.83;;;11.10;;
7575;SDS011;3829;50.798;4.358;2023-04-06T14:48:17;20.23;;;12.47;;
7575;SDS011;3829;50.798;4.358;2023-04-06T14:50:53;17.60;;;11.27;;
7575;SDS011;3829;50.798;4.358;2023-04-06T14:53:21;20.07;;;11.77;;
7575;SDS011;3829;50.798;4.358;2023-04-06T14:55:47;16.80;;;10.83;;
7575;SDS011;3829;50.798;4.358;2023-04-06T14:58:16;23.50;;;11.60;;
7575;SDS011;3829;50.798;4.358;2023-04-06T15:00:42;19.07;;;11.83;;
7575;SDS011;3829;50.798;4.358;2023-04-06T15:03:07;18.70;;;11.03;;
7575;SDS011;3829;50.798;4.358;2023-04-06T15:05:33;23.40;;;11.43;;
7575;SDS011;3829;50.798;4.358;2023-04-06T15:08:00;17.70;;;11.53;;
7575;SDS011;3829;50.798;4.358;2023-04-06T15:10:26;19.67;;;10.80;;
7575;SDS011;3829;50.798;4.358;2023-04-06T15:12:51;17.23;;;11.10;;